Time;durP1;ratioP1;P1;durP2;ratioP2;P2;SDS_P1;SDS_P2;PMS_P1;PMS_P2;Temp;Humidity;BMP_temperature;BMP_pressure;BME280_temperature;BME280_humidity;BME280_pressure;Samples;Min_cycle;Max_cycle;Signal;HPM_P1;HPM_P2
2022/09/16 00:02:23;;;;;;;5.40;4.00;;;17.00;99.90;;;;;;7373287;19;20415;-47
2022/09/16 00:04:55;;;;;;;7.30;4.40;;;17.00;99.90;;;;;;7376697;19;20948;-47
2022/09/16 00:07:27;;;;;;;6.33;4.00;;;16.90;99.90;;;;;;7363878;19;20380;-47
2022/09/16 00:09:59;;;;;;;6.03;4.07;;;16.90;99.90;;;;;;7377927;19;20467;-47
2022/09/16 00:12:29;;;;;;;7.23;3.83;;;16.90;99.90;;;;;;7378339;19;20416;-47
2022/09/16 00:14:58;;;;;;;5.77;4.90;;;17.00;99.90;;;;;;7378683;19;20910;-47
2022/09/16 00:17:31;;;;;;;4.37;3.57;;;17.00;99.90;;;;;;7374312;19;20913;-47
2022/09/16 00:20:00;;;;;;;4.43;4.03;;;17.00;99.90;;;;;;7378041;19;20383;-47
2022/09/16 00:22:32;;;;;;;6.67;4.20;;;17.00;99.90;;;;;;7372451;19;20368;-47
2022/09/16 00:25:02;;;;;;;4.97;4.03;;;17.10;99.90;;;;;;7377859;19;20412;-47
2022/09/16 00:27:31;;;;;;;4.80;3.90;;;17.10;99.90;;;;;;7373357;19;20392;-47
2022/09/16 00:30:00;;;;;;;6.03;4.07;;;17.10;99.90;;;;;;7381320;19;20406;-47
2022/09/16 00:32:30;;;;;;;5.57;4.20;;;17.10;99.90;;;;;;7381362;19;20416;-47
2022/09/16 00:34:59;;;;;;;6.03;4.40;;;17.20;99.90;;;;;;7384426;19;20416;-47
2022/09/16 00:37:33;;;;;;;5.07;4.27;;;17.10;99.90;;;;;;7379644;19;20777;-47
2022/09/16 00:40:02;;;;;;;8.83;4.00;;;17.00;99.90;;;;;;7381234;19;20870;-47
2022/09/16 00:42:32;;;;;;;6.57;3.57;;;16.70;99.90;;;;;;7384699;19;20677;-47
2022/09/16 00:45:03;;;;;;;6.33;3.93;;;16.50;99.90;;;;;;7384913;19;20368;-47
2022/09/16 00:47:37;;;;;;;4.57;4.17;;;16.40;99.90;;;;;;7382442;19;20372;-47
2022/09/16 00:50:10;;;;;;;6.73;4.20;;;16.30;99.90;;;;;;7384018;19;20376;-47
2022/09/16 00:52:43;;;;;;;5.00;4.50;;;16.20;99.90;;;;;;7381077;19;20380;-47
2022/09/16 00:55:17;;;;;;;4.97;4.37;;;15.80;99.90;;;;;;7381916;19;20376;-47
2022/09/16 00:57:47;;;;;;;4.07;3.67;;;15.70;99.90;;;;;;7383678;19;20946;-47
2022/09/16 01:00:19;;;;;;;6.10;4.33;;;15.70;99.90;;;;;;7380157;19;20376;-47
2022/09/16 01:02:51;;;;;;;10.43;4.33;;;15.80;99.90;;;;;;7385504;19;20388;-47
2022/09/16 01:05:25;;;;;;;5.07;4.20;;;15.90;99.90;;;;;;7382613;19;20375;-47
2022/09/16 01:07:57;;;;;;;5.90;4.43;;;15.90;99.90;;;;;;7379175;19;20388;-47
2022/09/16 01:10:28;;;;;;;4.80;4.13;;;16.00;99.90;;;;;;7383693;19;20379;-47
2022/09/16 01:13:00;;;;;;;7.93;4.63;;;15.90;99.90;;;;;;7373583;19;20937;-47
2022/09/16 01:15:38;;;;;;;5.00;3.87;;;16.00;99.90;;;;;;7381693;19;20383;-47
2022/09/16 01:18:16;;;;;;;7.33;5.10;;;16.00;99.90;;;;;;7386586;19;20376;-47
2022/09/16 01:21:06;;;;;;;7.97;4.70;;;16.10;99.90;;;;;;7381670;19;20385;-47
2022/09/16 01:24:06;;;;;;;4.50;3.70;;;16.20;99.90;;;;;;7382156;19;20784;-47
2022/09/16 01:27:08;;;;;;;8.87;6.40;;;16.10;99.90;;;;;;7383816;19;20380;-47
2022/09/16 01:29:57;;;;;;;10.10;4.10;;;16.10;99.90;;;;;;7384655;19;20914;-46
2022/09/16 01:32:35;;;;;;;7.30;4.60;;;15.80;99.90;;;;;;7378971;19;20376;-47
2022/09/16 01:35:09;;;;;;;6.33;5.67;;;15.90;99.90;;;;;;7380979;19;20451;-47
2022/09/16 01:37:52;;;;;;;4.40;3.93;;;15.90;99.90;;;;;;7382251;19;20463;-47
2022/09/16 01:40:29;;;;;;;7.73;4.43;;;16.10;99.90;;;;;;7379152;19;20391;-47
2022/09/16 01:43:09;;;;;;;6.07;4.00;;;16.20;99.90;;;;;;7384039;19;20420;-46
2022/09/16 01:45:43;;;;;;;7.60;4.23;;;16.10;99.90;;;;;;7376245;19;20933;-46
2022/09/16 01:48:22;;;;;;;4.77;3.63;;;16.10;99.90;;;;;;7376980;19;20752;-46
2022/09/16 01:50:58;;;;;;;5.70;4.00;;;16.20;99.90;;;;;;7377770;19;20438;-46
2022/09/16 01:53:34;;;;;;;10.23;4.70;;;16.20;99.90;;;;;;7381403;19;20380;-46
2022/09/16 01:56:11;;;;;;;4.40;4.00;;;16.20;99.90;;;;;;7377299;19;20383;-46
2022/09/16 01:58:50;;;;;;;6.17;5.00;;;16.30;99.90;;;;;;7376636;19;20379;-46
2022/09/16 02:01:25;;;;;;;5.47;3.93;;;16.30;99.90;;;;;;7372871;19;20519;-46
2022/09/16 02:04:06;;;;;;;6.70;4.30;;;16.30;99.90;;;;;;7382824;19;20384;-46
2022/09/16 02:06:38;;;;;;;3.97;3.60;;;16.40;99.90;;;;;;7375041;19;20377;-46
2022/09/16 02:09:13;;;;;;;5.53;3.70;;;16.40;99.90;;;;;;7380618;19;20405;-46
2022/09/16 02:11:45;;;;;;;5.37;3.80;;;16.40;99.90;;;;;;7376476;19;20374;-46
2022/09/16 02:14:18;;;;;;;4.33;3.83;;;16.50;99.90;;;;;;7379964;19;20360;-46
2022/09/16 02:16:53;;;;;;;4.13;3.30;;;16.50;99.90;;;;;;7374622;19;20713;-46
2022/09/16 02:19:29;;;;;;;9.80;4.13;;;16.60;99.90;;;;;;7379441;19;20976;-46
2022/09/16 02:22:02;;;;;;;3.97;3.57;;;16.60;99.90;;;;;;7376106;19;20921;-46
2022/09/16 02:24:34;;;;;;;4.90;3.83;;;16.60;99.90;;;;;;7376663;19;20373;-46
2022/09/16 02:27:08;;;;;;;3.53;3.10;;;16.50;99.90;;;;;;7379516;19;20733;-46
2022/09/16 02:29:42;;;;;;;3.50;3.20;;;16.60;99.90;;;;;;7379498;19;20439;-48
2022/09/16 02:32:14;;;;;;;5.30;3.20;;;16.70;99.90;;;;;;7373134;19;20375;-47
2022/09/16 02:34:50;;;;;;;6.87;3.43;;;16.60;99.90;;;;;;7376155;19;20407;-46
2022/09/16 02:37:26;;;;;;;4.77;3.27;;;16.50;99.90;;;;;;7376576;19;20372;-47
2022/09/16 02:40:00;;;;;;;12.40;3.63;;;16.50;99.90;;;;;;7380639;19;20751;-46
2022/09/16 02:42:30;;;;;;;6.30;3.70;;;16.40;99.90;;;;;;7380663;19;20841;-47
2022/09/16 02:45:01;;;;;;;5.33;3.37;;;16.40;99.90;;;;;;7376501;19;20380;-46
2022/09/16 02:47:39;;;;;;;6.10;3.60;;;16.20;99.90;;;;;;7375969;19;20380;-47
2022/09/16 02:50:15;;;;;;;5.33;3.10;;;16.20;99.90;;;;;;7375153;19;20376;-47
2022/09/16 02:52:52;;;;;;;7.40;3.30;;;16.10;99.90;;;;;;7378244;19;20453;-47
2022/09/16 02:55:29;;;;;;;3.57;2.60;;;16.00;99.90;;;;;;7378218;19;20463;-48
2022/09/16 02:57:59;;;;;;;6.30;3.10;;;15.90;99.90;;;;;;7378055;19;20409;-47
2022/09/16 03:00:31;;;;;;;3.50;2.80;;;16.00;99.90;;;;;;7380471;19;20372;-46
2022/09/16 03:03:01;;;;;;;4.60;3.60;;;16.00;99.90;;;;;;7376170;19;20416;-46
2022/09/16 03:05:33;;;;;;;5.00;3.27;;;15.50;99.90;;;;;;7378306;19;20410;-47
2022/09/16 03:08:05;;;;;;;10.00;3.53;;;15.40;99.90;;;;;;7372262;19;20425;-46
2022/09/16 03:10:45;;;;;;;3.60;2.80;;;15.50;99.90;;;;;;7379106;19;20368;-46
2022/09/16 03:13:23;;;;;;;4.73;3.20;;;15.70;99.90;;;;;;7377335;19;20375;-46
2022/09/16 03:16:05;;;;;;;4.93;3.63;;;15.20;99.90;;;;;;7374204;19;20762;-46
2022/09/16 03:18:57;;;;;;;3.40;3.10;;;14.90;99.90;;;;;;7382083;19;20905;-46
2022/09/16 03:21:34;;;;;;;5.00;3.70;;;15.10;99.90;;;;;;7372085;19;20428;-47
2022/09/16 03:24:11;;;;;;;5.33;3.13;;;15.20;99.90;;;;;;7377375;19;20911;-47
2022/09/16 03:26:48;;;;;;;4.37;2.80;;;15.20;99.90;;;;;;7376920;19;20411;-47
2022/09/16 03:29:23;;;;;;;3.37;2.77;;;15.20;99.90;;;;;;7379994;19;20395;-47
2022/09/16 03:32:00;;;;;;;3.87;2.90;;;15.20;99.90;;;;;;7371047;19;20467;-47
2022/09/16 03:34:35;;;;;;;4.17;3.00;;;14.80;99.90;;;;;;7378409;19;20388;-46
2022/09/16 03:37:10;;;;;;;4.23;3.10;;;14.80;99.90;;;;;;7378154;19;20372;-46
2022/09/16 03:39:41;;;;;;;6.27;3.60;;;14.90;99.90;;;;;;7380218;19;20368;-47
2022/09/16 03:42:12;;;;;;;4.30;2.83;;;15.00;99.90;;;;;;7378252;19;20368;-47
2022/09/16 03:44:42;;;;;;;3.57;2.53;;;15.10;99.90;;;;;;7380362;19;20407;-47
2022/09/16 03:47:12;;;;;;;7.40;3.73;;;15.30;99.90;;;;;;7379295;19;20372;-47
2022/09/16 03:49:41;;;;;;;5.33;2.93;;;15.40;99.90;;;;;;7377286;19;20376;-47
2022/09/16 03:52:16;;;;;;;6.50;3.83;;;15.20;99.90;;;;;;7374886;19;20790;-47
2022/09/16 03:54:47;;;;;;;9.03;4.23;;;15.20;99.90;;;;;;7380333;19;20367;-47
2022/09/16 03:57:17;;;;;;;5.97;3.47;;;15.10;99.90;;;;;;7375732;19;20376;-47
2022/09/16 03:59:46;;;;;;;5.23;3.13;;;15.10;99.90;;;;;;7377878;19;20420;-47
2022/09/16 04:02:16;;;;;;;6.80;3.07;;;15.10;99.90;;;;;;7365571;19;20428;-46
2022/09/16 04:04:45;;;;;;;5.00;3.63;;;15.00;99.90;;;;;;7372246;19;20482;-46
2022/09/16 04:07:17;;;;;;;4.53;2.57;;;15.10;99.90;;;;;;7379997;19;20360;-46
2022/09/16 04:09:47;;;;;;;5.93;3.10;;;15.10;99.90;;;;;;7377790;19;20372;-46
2022/09/16 04:12:16;;;;;;;3.73;2.47;;;14.90;99.90;;;;;;7378605;19;20918;-46
2022/09/16 04:14:49;;;;;;;3.87;2.53;;;14.90;99.90;;;;;;7369692;19;20713;-47
2022/09/16 04:17:19;;;;;;;4.50;2.60;;;15.10;99.90;;;;;;7369951;19;20942;-46
2022/09/16 04:19:48;;;;;;;5.13;2.50;;;15.30;99.90;;;;;;7379455;19;20364;-46
2022/09/16 04:22:20;;;;;;;5.30;2.80;;;15.30;99.90;;;;;;7374897;19;21977;-47
2022/09/16 04:24:49;;;;;;;4.07;3.50;;;15.40;99.90;;;;;;7377051;19;20368;-47
2022/09/16 04:27:19;;;;;;;5.33;3.00;;;15.40;99.90;;;;;;7380814;19;21254;-46
2022/09/16 04:29:48;;;;;;;8.70;4.30;;;15.60;99.90;;;;;;7373271;19;20423;-47
2022/09/16 04:32:18;;;;;;;3.73;2.73;;;15.60;99.90;;;;;;7372938;19;20449;-47
2022/09/16 04:34:47;;;;;;;3.00;2.00;;;15.50;99.90;;;;;;7373180;19;20409;-47
2022/09/16 04:37:20;;;;;;;9.77;2.87;;;15.20;99.90;;;;;;7372845;19;20413;-47
2022/09/16 04:39:49;;;;;;;4.50;2.47;;;15.10;99.90;;;;;;7375291;19;20379;-47
2022/09/16 04:42:18;;;;;;;3.67;2.47;;;15.20;99.90;;;;;;7376627;19;20419;-47
2022/09/16 04:44:48;;;;;;;3.53;2.67;;;15.30;99.90;;;;;;7368586;19;20392;-47
2022/09/16 04:47:17;;;;;;;3.00;2.60;;;15.30;99.90;;;;;;7373544;19;20376;-47
2022/09/16 04:49:47;;;;;;;2.27;2.07;;;15.10;99.90;;;;;;7375525;19;20386;-47
2022/09/16 04:52:16;;;;;;;6.83;2.47;;;14.90;99.90;;;;;;7369766;19;20404;-47
2022/09/16 04:54:48;;;;;;;3.70;2.17;;;15.00;99.90;;;;;;7372438;19;20364;-47
2022/09/16 04:57:20;;;;;;;5.20;2.20;;;15.00;99.90;;;;;;7381099;19;20412;-47
2022/09/16 04:59:49;;;;;;;6.73;2.67;;;15.20;99.90;;;;;;7371199;19;20401;-47
2022/09/16 05:02:19;;;;;;;4.53;2.43;;;15.20;99.90;;;;;;7364680;19;20495;-46
2022/09/16 05:04:49;;;;;;;8.00;2.67;;;14.90;99.90;;;;;;7373599;19;20368;-46
2022/09/16 05:07:18;;;;;;;6.20;3.07;;;14.80;99.90;;;;;;7366072;19;20380;-46
2022/09/16 05:09:51;;;;;;;4.60;3.40;;;14.80;99.90;;;;;;7367303;19;20753;-46
2022/09/16 05:12:21;;;;;;;4.07;2.47;;;14.90;99.90;;;;;;7374432;19;20392;-46
2022/09/16 05:14:50;;;;;;;5.20;2.50;;;14.80;99.90;;;;;;7369832;19;20400;-46
2022/09/16 05:17:19;;;;;;;5.70;2.60;;;14.90;99.90;;;;;;7377234;19;20397;-46
2022/09/16 05:19:52;;;;;;;4.93;3.03;;;15.00;99.90;;;;;;7378716;19;20875;-47
2022/09/16 05:22:21;;;;;;;2.90;2.30;;;14.90;99.90;;;;;;7374604;19;20379;-47
2022/09/16 05:24:55;;;;;;;4.00;3.00;;;14.90;99.90;;;;;;7383618;19;20760;-46
2022/09/16 05:27:26;;;;;;;5.07;3.30;;;15.00;99.90;;;;;;7370384;19;20372;-47
2022/09/16 05:29:56;;;;;;;3.47;3.07;;;14.90;99.90;;;;;;7382715;19;20376;-47
2022/09/16 05:32:26;;;;;;;4.10;2.93;;;15.00;99.90;;;;;;7384232;19;20927;-46
2022/09/16 05:34:55;;;;;;;5.30;3.53;;;15.00;99.90;;;;;;7380651;19;20388;-46
2022/09/16 05:37:25;;;;;;;4.67;4.13;;;15.10;99.90;;;;;;7385316;19;20375;-46
2022/09/16 05:39:57;;;;;;;7.63;3.70;;;14.90;99.90;;;;;;7385920;19;20739;-44
2022/09/16 05:42:26;;;;;;;4.97;3.70;;;14.70;99.90;;;;;;7385926;19;20420;-46
2022/09/16 05:44:56;;;;;;;7.37;4.50;;;14.60;99.90;;;;;;7385190;19;21030;-44
2022/09/16 05:47:26;;;;;;;5.30;3.47;;;14.60;99.90;;;;;;7387898;19;20396;-46
2022/09/16 05:49:55;;;;;;;3.73;3.33;;;14.50;99.90;;;;;;7385022;19;20369;-46
2022/09/16 05:52:25;;;;;;;4.80;3.43;;;14.60;99.90;;;;;;7383930;19;20383;-46
2022/09/16 05:54:57;;;;;;;4.27;3.53;;;14.80;99.90;;;;;;7387554;19;20372;-46
2022/09/16 05:57:26;;;;;;;6.37;4.10;;;14.90;99.90;;;;;;7387011;19;20416;-46
2022/09/16 05:59:56;;;;;;;6.70;4.20;;;14.70;99.90;;;;;;7385346;19;20370;-47
2022/09/16 06:02:26;;;;;;;5.90;3.80;;;14.70;99.90;;;;;;7384623;19;20443;-47
2022/09/16 06:04:55;;;;;;;6.53;3.23;;;14.80;99.90;;;;;;7380205;19;20874;-46
2022/09/16 06:07:25;;;;;;;3.87;3.47;;;14.70;99.90;;;;;;7378844;19;20388;-47
2022/09/16 06:09:57;;;;;;;5.47;4.40;;;14.80;99.90;;;;;;7384230;19;20809;-47
2022/09/16 06:12:29;;;;;;;12.50;4.70;;;15.00;99.90;;;;;;7382826;19;21076;-47
2022/09/16 06:14:59;;;;;;;7.77;4.80;;;15.10;99.90;;;;;;7385414;19;20401;-47
2022/09/16 06:17:28;;;;;;;8.67;4.17;;;15.20;99.90;;;;;;7383318;19;20381;-47
2022/09/16 06:20:00;;;;;;;9.27;4.60;;;15.20;99.90;;;;;;7386024;19;20716;-47
2022/09/16 06:22:32;;;;;;;5.80;4.40;;;15.30;99.90;;;;;;7382092;19;20846;-47
2022/09/16 06:25:05;;;;;;;5.27;4.17;;;15.20;99.90;;;;;;7385909;19;20391;-47
2022/09/16 06:27:34;;;;;;;6.63;4.10;;;15.10;99.90;;;;;;7385260;19;20383;-47
2022/09/16 06:30:07;;;;;;;5.57;4.10;;;15.20;99.90;;;;;;7385455;19;20710;-48
2022/09/16 06:32:37;;;;;;;7.53;3.13;;;15.30;99.90;;;;;;7383882;19;20384;-47
2022/09/16 06:35:07;;;;;;;7.70;3.30;;;15.30;99.90;;;;;;7385801;19;20372;-47
2022/09/16 06:37:37;;;;;;;6.63;3.60;;;15.30;99.90;;;;;;7382063;19;20368;-47
2022/09/16 06:40:10;;;;;;;5.50;3.60;;;15.30;99.90;;;;;;7384785;19;20429;-46
2022/09/16 06:42:40;;;;;;;5.87;3.20;;;15.30;99.90;;;;;;7382757;19;20380;-47
2022/09/16 06:45:11;;;;;;;6.10;3.20;;;15.30;99.90;;;;;;7385117;19;20376;-47
2022/09/16 06:47:41;;;;;;;5.53;3.10;;;15.30;99.90;;;;;;7384087;19;20408;-47
2022/09/16 06:50:11;;;;;;;8.70;3.03;;;15.30;99.90;;;;;;7378129;19;20381;-47
2022/09/16 06:52:41;;;;;;;8.23;3.20;;;15.10;99.90;;;;;;7385080;19;21009;-47
2022/09/16 06:55:13;;;;;;;6.63;3.43;;;15.30;99.90;;;;;;7384476;19;20949;-47
2022/09/16 06:57:42;;;;;;;9.10;3.57;;;15.40;99.90;;;;;;7383583;19;20376;-47
2022/09/16 07:00:14;;;;;;;5.73;2.93;;;15.40;99.90;;;;;;7382947;19;20753;-47
2022/09/16 07:02:43;;;;;;;5.80;3.67;;;15.40;99.90;;;;;;7379237;19;20380;-47
2022/09/16 07:05:13;;;;;;;7.83;3.30;;;15.40;99.90;;;;;;7382681;19;20368;-47
2022/09/16 07:07:43;;;;;;;11.20;3.80;;;15.30;99.90;;;;;;7380081;19;20368;-46
2022/09/16 07:10:15;;;;;;;5.00;2.70;;;15.40;99.90;;;;;;7372946;19;20376;-47
2022/09/16 07:12:50;;;;;;;8.00;3.23;;;15.40;99.90;;;;;;7367883;19;20376;-47
2022/09/16 07:15:22;;;;;;;3.77;2.97;;;15.40;99.90;;;;;;7361292;19;20372;-47
2022/09/16 07:17:55;;;;;;;5.53;3.13;;;15.30;99.90;;;;;;7360013;19;20372;-47
2022/09/16 07:20:25;;;;;;;5.50;3.60;;;15.30;99.90;;;;;;7357733;19;20443;-47
2022/09/16 07:22:54;;;;;;;8.83;4.00;;;15.30;99.90;;;;;;7367064;19;20376;-47
2022/09/16 07:25:27;;;;;;;4.70;3.10;;;15.30;99.90;;;;;;7383836;19;20376;-47
2022/09/16 07:27:56;;;;;;;7.07;3.67;;;15.30;99.90;;;;;;7384023;19;20800;-47
2022/09/16 07:30:27;;;;;;;5.43;3.33;;;15.20;99.90;;;;;;7382139;19;20385;-47
2022/09/16 07:32:56;;;;;;;6.33;3.97;;;15.00;99.90;;;;;;7380760;19;20774;-47
2022/09/16 07:35:26;;;;;;;11.03;4.60;;;15.00;99.90;;;;;;7376990;19;20372;-47
2022/09/16 07:37:55;;;;;;;10.60;4.47;;;15.10;99.90;;;;;;7380032;19;20372;-47
2022/09/16 07:40:28;;;;;;;5.87;3.70;;;15.10;99.90;;;;;;7383098;19;20368;-45
2022/09/16 07:42:57;;;;;;;9.60;3.93;;;15.20;99.90;;;;;;7383183;19;20890;-47
2022/09/16 07:45:26;;;;;;;6.83;4.50;;;15.20;99.90;;;;;;7379535;19;20384;-47
2022/09/16 07:47:56;;;;;;;6.60;3.90;;;15.30;99.90;;;;;;7380858;19;20958;-45
2022/09/16 07:50:26;;;;;;;6.07;3.63;;;15.40;99.90;;;;;;7382542;19;20384;-46
2022/09/16 07:52:56;;;;;;;4.27;3.60;;;15.40;99.90;;;;;;7378146;19;20379;-46
2022/09/16 07:55:28;;;;;;;5.80;4.10;;;15.60;99.90;;;;;;7381319;19;20375;-46
2022/09/16 07:57:58;;;;;;;7.30;4.43;;;15.80;99.90;;;;;;7381594;19;20379;-45
2022/09/16 08:00:28;;;;;;;8.60;4.00;;;15.80;99.90;;;;;;7380990;19;20368;-45
2022/09/16 08:02:59;;;;;;;4.23;3.70;;;15.80;99.90;;;;;;7382228;19;20414;-46
2022/09/16 08:05:29;;;;;;;5.80;4.17;;;16.00;99.90;;;;;;7381369;19;20425;-46
2022/09/16 08:07:58;;;;;;;5.50;4.53;;;16.00;99.90;;;;;;7380625;19;20376;-47
2022/09/16 08:10:30;;;;;;;4.90;3.40;;;16.10;99.90;;;;;;7382776;19;20395;-46
2022/09/16 08:13:00;;;;;;;5.50;3.37;;;16.00;99.90;;;;;;7382565;19;20440;-47
2022/09/16 08:15:29;;;;;;;5.40;3.97;;;16.10;99.90;;;;;;7378947;19;20380;-46
2022/09/16 08:18:02;;;;;;;9.80;4.53;;;16.10;99.90;;;;;;7379938;19;20380;-46
2022/09/16 08:20:31;;;;;;;9.90;4.40;;;15.90;99.90;;;;;;7382973;19;20439;-46
2022/09/16 08:23:01;;;;;;;7.57;5.07;;;16.20;99.90;;;;;;7377071;19;20403;-45
2022/09/16 08:25:33;;;;;;;9.90;4.23;;;16.30;99.90;;;;;;7383437;19;20371;-46
2022/09/16 08:28:03;;;;;;;10.80;5.80;;;16.10;99.90;;;;;;7383490;19;20734;-46
2022/09/16 08:30:33;;;;;;;8.33;4.17;;;16.20;99.90;;;;;;7381410;19;20372;-46
2022/09/16 08:33:02;;;;;;;8.40;4.90;;;16.10;99.90;;;;;;7380181;19;20394;-46
2022/09/16 08:35:32;;;;;;;9.00;4.90;;;16.10;99.90;;;;;;7382861;19;20382;-46
2022/09/16 08:38:02;;;;;;;5.17;3.90;;;16.10;99.90;;;;;;7377951;19;20999;-46
2022/09/16 08:40:37;;;;;;;10.40;5.10;;;16.00;99.90;;;;;;7382662;19;20384;-46
2022/09/16 08:43:15;;;;;;;8.03;5.00;;;15.90;99.90;;;;;;7368636;19;20368;-47
2022/09/16 08:45:56;;;;;;;7.50;4.90;;;16.00;99.90;;;;;;7376467;19;20382;-46
2022/09/16 08:48:36;;;;;;;5.03;4.50;;;15.90;99.90;;;;;;7379788;19;20372;-46
2022/09/16 08:51:07;;;;;;;7.50;4.90;;;16.10;99.90;;;;;;7381639;19;22359;-47
2022/09/16 08:53:43;;;;;;;6.60;4.07;;;16.20;99.90;;;;;;7383678;19;20380;-46
2022/09/16 08:56:26;;;;;;;6.73;4.50;;;16.30;99.90;;;;;;7386942;19;20774;-46
2022/09/16 08:59:00;;;;;;;7.17;4.37;;;16.40;99.90;;;;;;7384333;19;20391;-47
2022/09/16 09:01:36;;;;;;;6.83;4.97;;;16.50;99.90;;;;;;7386983;19;21020;-47
2022/09/16 09:04:07;;;;;;;5.97;3.57;;;16.60;99.90;;;;;;7385742;19;20916;-47
2022/09/16 09:06:52;;;;;;;16.47;5.83;;;16.70;99.90;;;;;;7388240;19;20379;-47
2022/09/16 09:09:37;;;;;;;5.30;4.00;;;16.80;99.90;;;;;;7386119;19;20388;-47
2022/09/16 09:12:16;;;;;;;6.87;3.93;;;16.90;99.90;;;;;;7385903;19;20405;-47
2022/09/16 09:15:01;;;;;;;4.63;3.07;;;16.90;99.90;;;;;;7384911;19;20380;-47
2022/09/16 09:17:49;;;;;;;7.40;3.57;;;16.90;99.90;;;;;;7385951;19;21052;-47
2022/09/16 09:20:30;;;;;;;4.77;3.17;;;16.90;99.90;;;;;;7385909;19;20374;-47
2022/09/16 09:23:15;;;;;;;4.30;3.37;;;16.90;99.90;;;;;;7384508;19;20368;-48
2022/09/16 09:25:51;;;;;;;4.70;3.20;;;17.00;99.90;;;;;;7383873;19;20385;-47
2022/09/16 09:28:47;;;;;;;4.43;3.50;;;17.10;99.90;;;;;;7385789;19;21364;-48
2022/09/16 09:31:26;;;;;;;5.27;3.30;;;17.10;99.90;;;;;;7387837;19;20391;-47
2022/09/16 09:34:03;;;;;;;5.63;3.20;;;16.90;99.90;;;;;;7385472;19;20393;-48
2022/09/16 09:36:50;;;;;;;6.43;3.80;;;17.00;99.90;;;;;;7385688;19;20384;-47
2022/09/16 09:39:31;;;;;;;3.43;3.00;;;16.90;99.90;;;;;;7386037;19;20877;-47
2022/09/16 09:42:06;;;;;;;4.53;3.10;;;16.90;99.90;;;;;;7387153;19;20372;-47
2022/09/16 09:44:50;;;;;;;3.17;2.87;;;16.80;99.90;;;;;;7385456;19;20790;-47
2022/09/16 09:47:25;;;;;;;5.87;3.77;;;16.80;99.90;;;;;;7385959;19;20376;-47
2022/09/16 09:49:58;;;;;;;6.03;2.90;;;16.60;99.90;;;;;;7387641;19;21220;-47
2022/09/16 09:52:33;;;;;;;5.27;2.97;;;16.80;99.90;;;;;;7386463;19;20387;-47
2022/09/16 09:55:14;;;;;;;5.03;2.70;;;17.00;99.90;;;;;;7385073;19;20383;-46
2022/09/16 09:58:02;;;;;;;5.13;3.20;;;17.10;99.90;;;;;;7388382;19;20368;-47
2022/09/16 10:00:34;;;;;;;6.07;3.67;;;17.00;99.90;;;;;;7384866;19;20424;-47
2022/09/16 10:03:09;;;;;;;4.30;3.40;;;17.00;99.90;;;;;;7383843;19;20396;-47
2022/09/16 10:05:39;;;;;;;5.30;3.43;;;17.10;99.90;;;;;;7386959;19;20973;-47
2022/09/16 10:08:17;;;;;;;4.00;3.53;;;16.90;99.90;;;;;;7385462;19;20938;-47
2022/09/16 10:10:52;;;;;;;6.00;3.80;;;17.00;99.90;;;;;;7385183;19;20421;-47
2022/09/16 10:13:23;;;;;;;3.90;3.40;;;17.00;99.90;;;;;;7383947;19;20468;-47
2022/09/16 10:16:10;;;;;;;4.57;3.20;;;17.00;99.90;;;;;;7386386;19;20380;-47
2022/09/16 10:18:40;;;;;;;3.80;3.00;;;17.10;99.90;;;;;;7386235;19;20376;-47
2022/09/16 10:21:13;;;;;;;5.07;2.83;;;17.10;99.90;;;;;;7386893;19;20372;-47
2022/09/16 10:23:42;;;;;;;4.60;2.40;;;17.10;99.90;;;;;;7383171;19;20471;-47
2022/09/16 10:26:23;;;;;;;4.23;3.27;;;17.00;99.90;;;;;;7383824;19;20916;-47
2022/09/16 10:29:00;;;;;;;7.10;3.10;;;17.00;99.90;;;;;;7386070;19;20924;-47
2022/09/16 10:31:39;;;;;;;4.80;3.57;;;17.10;99.90;;;;;;7386962;19;20380;-47
2022/09/16 10:34:19;;;;;;;3.53;2.90;;;17.10;99.90;;;;;;7381287;19;20368;-47
2022/09/16 10:36:59;;;;;;;6.60;3.10;;;17.10;99.90;;;;;;7378116;19;20416;-47
2022/09/16 10:39:30;;;;;;;5.30;3.47;;;17.10;99.90;;;;;;7380150;19;20383;-47
2022/09/16 10:41:59;;;;;;;4.00;2.80;;;17.20;99.90;;;;;;7384277;19;20693;-47
2022/09/16 10:44:30;;;;;;;4.13;3.17;;;17.20;99.90;;;;;;7385132;19;20747;-47
2022/09/16 10:47:08;;;;;;;3.53;2.83;;;17.30;99.90;;;;;;7381068;19;20933;-46
2022/09/16 10:49:41;;;;;;;2.80;2.50;;;17.40;99.60;;;;;;7381102;19;20372;-47
2022/09/16 10:52:16;;;;;;;4.17;3.07;;;17.30;98.80;;;;;;7384522;19;20392;-47
2022/09/16 10:54:47;;;;;;;3.57;2.63;;;17.10;99.90;;;;;;7382663;19;20396;-46
2022/09/16 10:57:31;;;;;;;3.00;2.70;;;17.20;99.90;;;;;;7384123;19;20786;-47
2022/09/16 11:00:12;;;;;;;3.67;2.60;;;17.20;99.90;;;;;;7381486;19;20384;-47
2022/09/16 11:03:13;;;;;;;5.83;3.43;;;17.30;99.90;;;;;;7380879;19;20891;-47
2022/09/16 11:05:54;;;;;;;4.50;3.20;;;17.20;99.90;;;;;;7380682;19;20791;-47
2022/09/16 11:08:36;;;;;;;5.23;2.80;;;17.00;99.90;;;;;;7381199;19;20414;-47
2022/09/16 11:11:14;;;;;;;3.73;2.77;;;17.00;99.90;;;;;;7386039;19;20416;-48
2022/09/16 11:13:52;;;;;;;4.90;3.20;;;17.10;99.90;;;;;;7384172;19;20718;-47
2022/09/16 11:16:32;;;;;;;3.83;2.90;;;17.10;99.90;;;;;;7382631;19;20894;-47
2022/09/16 11:19:10;;;;;;;6.03;3.87;;;17.10;99.90;;;;;;7379843;19;20380;-47
2022/09/16 11:21:55;;;;;;;9.30;3.13;;;17.00;99.90;;;;;;7378774;19;20405;-47
2022/09/16 11:24:37;;;;;;;4.90;3.70;;;16.90;99.90;;;;;;7383733;19;20376;-47
2022/09/16 11:27:12;;;;;;;4.23;2.53;;;17.00;99.90;;;;;;7378787;19;20914;-47
2022/09/16 11:29:53;;;;;;;3.20;2.90;;;17.00;99.90;;;;;;7385249;19;20379;-47
2022/09/16 11:32:34;;;;;;;3.30;2.70;;;16.90;99.90;;;;;;7381505;19;20412;-48
2022/09/16 11:35:34;;;;;;;3.07;2.50;;;16.90;99.90;;;;;;7381196;19;20387;-47
2022/09/16 11:38:10;;;;;;;3.47;2.40;;;16.90;99.90;;;;;;7380534;19;20395;-47
2022/09/16 11:40:48;;;;;;;4.80;2.90;;;16.90;99.90;;;;;;7385752;19;20980;-48
2022/09/16 11:43:51;;;;;;;2.90;2.60;;;16.90;99.90;;;;;;7379947;19;20402;-47
2022/09/16 11:46:28;;;;;;;2.97;2.47;;;16.90;99.90;;;;;;7383951;19;20413;-47
2022/09/16 11:49:17;;;;;;;3.20;2.50;;;17.00;99.80;;;;;;7382143;19;20388;-46
2022/09/16 11:52:07;;;;;;;5.10;2.80;;;17.10;97.50;;;;;;7371899;19;20372;-46
2022/09/16 11:55:05;;;;;;;4.17;2.40;;;17.20;94.80;;;;;;7371746;19;20372;-46
2022/09/16 11:57:39;;;;;;;4.60;2.23;;;17.30;95.20;;;;;;7378333;19;20368;-47
2022/09/16 12:00:15;;;;;;;4.37;2.57;;;17.60;92.20;;;;;;7378728;19;21045;-47
2022/09/16 12:02:53;;;;;;;3.90;3.13;;;17.80;88.80;;;;;;7371808;19;20401;-47
2022/09/16 12:05:29;;;;;;;3.67;2.40;;;18.10;89.90;;;;;;7351094;19;20376;-47
2022/09/16 12:08:11;;;;;;;3.57;2.03;;;18.60;89.60;;;;;;7355136;19;20382;-47
2022/09/16 12:10:47;;;;;;;3.30;1.93;;;19.20;82.90;;;;;;7361526;19;20391;-47
2022/09/16 12:13:21;;;;;;;3.37;2.30;;;19.40;78.10;;;;;;7356335;19;20372;-47
2022/09/16 12:15:53;;;;;;;1.90;1.70;;;19.50;79.40;;;;;;7347778;19;20971;-47
2022/09/16 12:18:28;;;;;;;3.87;1.70;;;20.70;71.30;;;;;;7363204;19;20364;-47
2022/09/16 12:21:07;;;;;;;4.70;3.27;;;22.10;61.50;;;;;;7337309;19;20368;-48
2022/09/16 12:23:44;;;;;;;2.50;1.23;;;22.70;59.20;;;;;;7339556;19;21146;-48
2022/09/16 12:26:19;;;;;;;2.90;1.67;;;22.40;57.90;;;;;;7341249;19;20375;-47
2022/09/16 12:28:56;;;;;;;2.63;1.87;;;21.90;59.30;;;;;;7346227;19;20474;-47
2022/09/16 12:31:31;;;;;;;5.80;2.00;;;21.50;57.00;;;;;;7361187;19;20376;-47
2022/09/16 12:34:06;;;;;;;2.80;1.40;;;21.20;58.20;;;;;;7359893;19;21155;-48
2022/09/16 12:36:39;;;;;;;3.67;1.30;;;21.00;58.30;;;;;;7361346;19;20379;-48
2022/09/16 12:39:14;;;;;;;3.67;1.90;;;20.70;59.10;;;;;;7362174;19;20374;-47
2022/09/16 12:42:28;;;;;;;3.67;2.70;;;20.10;59.70;;;;;;7368374;19;20382;-48
2022/09/16 12:45:24;;;;;;;2.70;1.80;;;20.00;60.00;;;;;;7368226;19;20965;-47
2022/09/16 12:48:07;;;;;;;6.80;1.80;;;19.70;60.30;;;;;;7384464;19;20897;-47
2022/09/16 12:50:51;;;;;;;3.10;1.80;;;19.40;60.70;;;;;;7389816;19;20412;-47
2022/09/16 12:53:51;;;;;;;4.60;1.80;;;19.20;60.20;;;;;;7387918;19;20383;-47
2022/09/16 12:56:42;;;;;;;3.53;1.73;;;18.90;62.30;;;;;;7387124;19;20371;-47
2022/09/16 12:59:50;;;;;;;4.53;2.17;;;18.80;62.10;;;;;;7390833;19;20801;-47
2022/09/16 13:02:23;;;;;;;1.90;1.20;;;18.80;62.70;;;;;;7387138;19;20435;-47
2022/09/16 13:04:55;;;;;;;3.13;1.87;;;18.70;63.30;;;;;;7387957;19;20386;-47
2022/09/16 13:07:28;;;;;;;2.43;1.70;;;18.60;64.50;;;;;;7384186;19;20379;-48
2022/09/16 13:10:06;;;;;;;4.13;1.50;;;18.60;65.20;;;;;;7386264;19;20392;-47
2022/09/16 13:12:38;;;;;;;2.40;1.70;;;18.60;65.40;;;;;;7389268;19;20371;-47
2022/09/16 13:15:09;;;;;;;9.17;1.87;;;18.60;65.20;;;;;;7389202;19;20379;-48
2022/09/16 13:17:41;;;;;;;3.70;2.03;;;18.80;64.40;;;;;;7362111;19;20450;-47
2022/09/16 13:20:19;;;;;;;4.23;2.70;;;19.10;64.10;;;;;;7389145;19;20391;-47
2022/09/16 13:22:54;;;;;;;2.23;1.50;;;19.60;62.40;;;;;;7386095;19;20376;-48
2022/09/16 13:25:27;;;;;;;4.07;2.03;;;20.00;59.50;;;;;;7386301;19;20383;-47